Time;durP1;ratioP1;P1;durP2;ratioP2;P2;SDS_P1;SDS_P2;PMS_P1;PMS_P2;Temp;Humidity;BMP_temperature;BMP_pressure;BME280_temperature;BME280_humidity;BME280_pressure;Samples;Min_cycle;Max_cycle;Signal;HPM_P1;HPM_P2
2023/04/11 02:01:00;;;;;;;32.10;13.55;;;;;;;;;;4767723;28;20086;-75
2023/04/11 02:03:27;;;;;;;27.45;12.05;;;;;;;;;;4267230;33;20103;-76
2023/04/11 02:05:54;;;;;;;26.92;11.90;;;;;;;;;;4267442;33;20448;-76
2023/04/11 02:08:20;;;;;;;25.45;11.73;;;;;;;;;;4269324;33;20071;-76
2023/04/11 02:10:46;;;;;;;17.92;9.43;;;;;;;;;;4269539;33;20053;-76
2023/04/11 02:13:13;;;;;;;17.40;9.90;;;;;;;;;;4268003;33;20041;-75
2023/04/11 02:15:39;;;;;;;15.45;9.23;;;;;;;;;;4267004;33;20097;-76
2023/04/11 02:18:08;;;;;;;20.42;9.43;;;;;;;;;;4268718;33;20064;-76
2023/04/11 02:20:36;;;;;;;12.60;7.82;;;;;;;;;;4268433;33;20501;-76
2023/04/11 02:23:03;;;;;;;12.20;8.38;;;;;;;;;;4269108;33;20062;-76
2023/04/11 02:25:30;;;;;;;13.48;7.15;;;;;;;;;;4255100;33;20058;-75
2023/04/11 02:27:58;;;;;;;13.88;7.72;;;;;;;;;;4252191;33;20138;-76
2023/04/11 02:30:24;;;;;;;17.70;9.52;;;;;;;;;;4269325;33;20065;-76
2023/04/11 02:32:50;;;;;;;16.00;8.43;;;;;;;;;;4268787;33;20062;-76
2023/04/11 02:35:17;;;;;;;13.75;7.78;;;;;;;;;;4265524;33;20414;-76
2023/04/11 02:37:44;;;;;;;13.73;7.93;;;;;;;;;;4263706;33;20115;-76
2023/04/11 02:40:10;;;;;;;9.10;6.20;;;;;;;;;;4264163;33;20045;-76
2023/04/11 02:42:39;;;;;;;12.07;8.13;;;;;;;;;;4266050;33;20075;-77
2023/04/11 02:45:05;;;;;;;10.13;6.57;;;;;;;;;;4250906;33;20362;-76
2023/04/11 02:47:32;;;;;;;8.80;6.65;;;;;;;;;;4251939;33;20050;-77
2023/04/11 02:49:58;;;;;;;11.15;7.35;;;;;;;;;;4248057;33;20089;-77
2023/04/11 02:52:25;;;;;;;12.27;7.25;;;;;;;;;;4251970;33;20084;-77
2023/04/11 02:54:51;;;;;;;11.02;6.87;;;;;;;;;;4252268;33;20050;-77
2023/04/11 02:57:18;;;;;;;13.73;6.87;;;;;;;;;;4250142;33;20119;-76
2023/04/11 02:59:45;;;;;;;12.20;6.75;;;;;;;;;;4222955;34;20401;-76
2023/04/11 03:02:13;;;;;;;14.80;7.37;;;;;;;;;;4220409;34;20062;-76
2023/04/11 03:04:39;;;;;;;12.07;6.87;;;;;;;;;;4222709;34;20038;-76
2023/04/11 03:07:06;;;;;;;9.88;7.18;;;;;;;;;;4220572;34;20051;-76
2023/04/11 03:09:32;;;;;;;13.60;7.18;;;;;;;;;;4222728;34;20094;-76
2023/04/11 03:12:00;;;;;;;9.98;7.15;;;;;;;;;;4220363;34;20078;-76
2023/04/11 03:14:26;;;;;;;13.55;7.40;;;;;;;;;;4223217;34;20042;-76
2023/04/11 03:16:52;;;;;;;10.68;7.32;;;;;;;;;;4221804;34;20058;-75
2023/04/11 03:19:18;;;;;;;10.07;6.35;;;;;;;;;;4222055;34;20035;-75
2023/04/11 03:21:44;;;;;;;8.85;6.05;;;;;;;;;;4222778;34;20058;-76
2023/04/11 03:24:11;;;;;;;12.00;7.25;;;;;;;;;;4222371;34;20055;-76
2023/04/11 03:26:38;;;;;;;10.98;6.82;;;;;;;;;;4222059;34;20039;-76
2023/04/11 03:29:06;;;;;;;19.23;8.20;;;;;;;;;;4222178;34;20047;-76
2023/04/11 03:31:33;;;;;;;11.40;7.80;;;;;;;;;;4244834;33;20066;-76
2023/04/11 03:33:59;;;;;;;14.77;8.45;;;;;;;;;;4264218;33;20034;-76
2023/04/11 03:36:26;;;;;;;13.20;7.28;;;;;;;;;;4266446;33;20054;-75
2023/04/11 03:38:52;;;;;;;12.93;8.00;;;;;;;;;;4267507;33;20667;-75
2023/04/11 03:41:19;;;;;;;13.60;6.78;;;;;;;;;;4262780;33;20380;-76
2023/04/11 03:43:46;;;;;;;11.07;7.68;;;;;;;;;;4265576;33;20063;-76
2023/04/11 03:46:13;;;;;;;14.98;7.95;;;;;;;;;;4277285;33;20065;-76
2023/04/11 03:48:39;;;;;;;14.38;8.82;;;;;;;;;;4279514;33;20051;-75
2023/04/11 03:51:06;;;;;;;13.50;8.13;;;;;;;;;;4279139;33;20079;-75
2023/04/11 03:53:33;;;;;;;19.08;9.13;;;;;;;;;;4279158;33;20128;-75
2023/04/11 03:56:00;;;;;;;16.90;9.05;;;;;;;;;;4278218;33;20056;-76
2023/04/11 03:58:27;;;;;;;14.43;10.10;;;;;;;;;;4277303;33;20074;-75
2023/04/11 04:00:54;;;;;;;25.05;10.63;;;;;;;;;;4251820;33;20058;-76
2023/04/11 04:03:21;;;;;;;12.40;8.00;;;;;;;;;;4250593;33;20086;-76
2023/04/11 04:05:47;;;;;;;16.90;8.77;;;;;;;;;;4252312;33;20106;-76
2023/04/11 04:08:14;;;;;;;12.25;8.27;;;;;;;;;;4261023;33;20050;-77
2023/04/11 04:10:40;;;;;;;20.15;9.23;;;;;;;;;;4252906;33;20037;-77
2023/04/11 04:13:06;;;;;;;11.45;8.25;;;;;;;;;;4243888;33;20536;-76
2023/04/11 04:15:34;;;;;;;17.37;9.13;;;;;;;;;;4240009;33;20046;-76
2023/04/11 04:18:00;;;;;;;14.23;8.15;;;;;;;;;;4226930;33;20469;-76
2023/04/11 04:20:28;;;;;;;16.55;9.02;;;;;;;;;;4221861;33;20192;-76
2023/04/11 04:23:03;;;;;;;9.70;7.55;;;;;;;;;;4224490;34;20535;-76
2023/04/11 04:25:30;;;;;;;14.48;7.10;;;;;;;;;;4233878;33;20131;-76
2023/04/11 04:27:59;;;;;;;16.20;8.32;;;;;;;;;;4228619;34;20107;-76
2023/04/11 04:30:27;;;;;;;19.12;6.93;;;;;;;;;;4225453;33;20046;-76
2023/04/11 04:32:57;;;;;;;9.38;6.87;;;;;;;;;;4239291;33;20034;-76
2023/04/11 04:35:24;;;;;;;12.70;7.37;;;;;;;;;;4269269;33;20046;-76
2023/04/11 04:37:50;;;;;;;19.20;7.43;;;;;;;;;;4272194;33;20071;-76
2023/04/11 04:40:19;;;;;;;12.60;6.93;;;;;;;;;;4267855;33;20063;-76
2023/04/11 04:42:57;;;;;;;14.18;7.62;;;;;;;;;;4267445;33;20046;-76
2023/04/11 04:45:26;;;;;;;17.75;7.60;;;;;;;;;;4275682;33;20061;-76
2023/04/11 04:47:53;;;;;;;11.85;7.00;;;;;;;;;;4279807;33;20402;-76
2023/04/11 04:50:19;;;;;;;12.35;7.57;;;;;;;;;;4264881;33;20052;-76
2023/04/11 04:52:46;;;;;;;10.40;7.40;;;;;;;;;;4250972;33;20057;-77
2023/04/11 04:55:12;;;;;;;14.63;7.93;;;;;;;;;;4250915;33;20121;-77
2023/04/11 04:57:39;;;;;;;9.20;6.35;;;;;;;;;;4207174;34;20035;-76
2023/04/11 05:00:10;;;;;;;16.55;7.20;;;;;;;;;;4207915;34;20068;-76
2023/04/11 05:02:39;;;;;;;9.57;6.63;;;;;;;;;;4207821;34;20560;-77
2023/04/11 05:05:06;;;;;;;11.18;5.65;;;;;;;;;;4207623;34;20137;-76
2023/04/11 05:07:33;;;;;;;16.90;7.57;;;;;;;;;;4207365;34;20531;-76
2023/04/11 05:10:00;;;;;;;12.18;7.45;;;;;;;;;;4204787;34;20027;-77
2023/04/11 05:12:27;;;;;;;14.77;6.53;;;;;;;;;;4206128;34;20063;-76
2023/04/11 05:14:55;;;;;;;10.63;6.50;;;;;;;;;;4207074;34;20035;-76
2023/04/11 05:17:22;;;;;;;12.40;6.35;;;;;;;;;;4184991;34;20028;-76
2023/04/11 05:19:49;;;;;;;8.18;6.00;;;;;;;;;;4171302;34;20059;-76
2023/04/11 05:22:16;;;;;;;8.63;5.93;;;;;;;;;;4184683;34;20084;-77
2023/04/11 05:24:43;;;;;;;10.77;7.47;;;;;;;;;;4186178;34;20052;-76
2023/04/11 05:27:10;;;;;;;9.32;5.87;;;;;;;;;;4178227;34;20052;-76
2023/04/11 05:29:36;;;;;;;19.95;6.80;;;;;;;;;;4191726;34;20128;-76
2023/04/11 05:32:02;;;;;;;12.30;7.30;;;;;;;;;;4177337;34;20036;-76
2023/04/11 05:34:30;;;;;;;10.68;7.22;;;;;;;;;;4182591;34;20223;-76
2023/04/11 05:36:56;;;;;;;15.15;6.78;;;;;;;;;;4192836;34;20548;-75
2023/04/11 05:39:29;;;;;;;14.93;7.72;;;;;;;;;;4194032;34;20645;-76
2023/04/11 05:41:55;;;;;;;12.57;7.85;;;;;;;;;;4192682;34;20760;-76
2023/04/11 05:44:22;;;;;;;15.70;8.60;;;;;;;;;;4206187;34;20087;-76
2023/04/11 05:46:48;;;;;;;15.60;7.30;;;;;;;;;;4207875;34;20027;-76
2023/04/11 05:49:16;;;;;;;10.57;7.30;;;;;;;;;;4231485;33;20171;-76
2023/04/11 05:51:42;;;;;;;15.07;8.57;;;;;;;;;;4247039;33;20446;-76
2023/04/11 05:54:09;;;;;;;12.45;7.22;;;;;;;;;;4245728;33;20111;-76
2023/04/11 05:56:38;;;;;;;10.95;7.40;;;;;;;;;;4248117;33;20053;-76
2023/04/11 05:59:05;;;;;;;12.27;8.23;;;;;;;;;;4247347;33;20399;-76
2023/04/11 06:01:31;;;;;;;14.23;8.18;;;;;;;;;;4248356;33;20045;-74
2023/04/11 06:03:57;;;;;;;10.90;7.47;;;;;;;;;;4261058;33;20420;-75
2023/04/11 06:06:23;;;;;;;13.60;7.53;;;;;;;;;;4261153;33;20038;-76
2023/04/11 06:08:50;;;;;;;24.05;7.87;;;;;;;;;;4248635;33;20429;-76
2023/04/11 06:11:16;;;;;;;11.27;7.05;;;;;;;;;;4247001;33;20488;-75
2023/04/11 06:13:42;;;;;;;15.93;7.95;;;;;;;;;;4249041;33;20049;-75
2023/04/11 06:16:08;;;;;;;18.15;8.02;;;;;;;;;;4237652;33;20376;-76
2023/04/11 06:18:35;;;;;;;15.65;7.72;;;;;;;;;;4232427;33;20050;-76
2023/04/11 06:21:02;;;;;;;16.08;8.52;;;;;;;;;;4251185;33;20112;-75
2023/04/11 06:23:28;;;;;;;18.90;8.15;;;;;;;;;;4252721;33;20126;-75
2023/04/11 06:25:55;;;;;;;12.35;6.43;;;;;;;;;;4251549;33;20064;-75
2023/04/11 06:28:21;;;;;;;10.27;7.78;;;;;;;;;;4250035;33;20050;-76
2023/04/11 06:30:47;;;;;;;12.60;7.80;;;;;;;;;;4223432;34;20132;-74
2023/04/11 06:33:13;;;;;;;12.70;7.95;;;;;;;;;;4208511;34;20099;-74
2023/04/11 06:35:39;;;;;;;10.90;7.50;;;;;;;;;;4208961;34;20481;-75
2023/04/11 06:38:05;;;;;;;12.93;7.15;;;;;;;;;;4202760;34;20050;-76
2023/04/11 06:40:32;;;;;;;12.70;7.85;;;;;;;;;;4216386;34;20073;-76
2023/04/11 06:42:59;;;;;;;11.70;7.53;;;;;;;;;;4222542;34;20516;-75
2023/04/11 06:45:25;;;;;;;11.90;7.95;;;;;;;;;;4215035;33;20482;-75
2023/04/11 06:47:52;;;;;;;14.32;7.28;;;;;;;;;;4208181;34;20074;-75
2023/04/11 06:50:18;;;;;;;15.68;8.38;;;;;;;;;;4208055;34;20103;-76
2023/04/11 06:52:44;;;;;;;12.00;7.43;;;;;;;;;;4211085;33;20050;-76
2023/04/11 06:55:14;;;;;;;12.63;7.45;;;;;;;;;;4210212;34;20158;-76
2023/04/11 06:57:41;;;;;;;18.25;7.32;;;;;;;;;;4215908;34;20081;-75
2023/04/11 07:00:08;;;;;;;15.77;7.62;;;;;;;;;;4214178;34;20374;-74
2023/04/11 08:21:13;;;;;;;7.03;4.72;;;;;;;;;;4265082;33;20403;-71
2023/04/11 08:23:46;;;;;;;10.10;4.85;;;;;;;;;;4234879;33;20080;-72
2023/04/11 08:26:12;;;;;;;5.47;4.68;;;;;;;;;;4238679;33;20113;-72
2023/04/11 08:28:39;;;;;;;5.05;4.25;;;;;;;;;;4239476;33;20413;-76
2023/04/11 08:31:05;;;;;;;7.68;4.72;;;;;;;;;;4244127;33;20066;-71
2023/04/11 08:33:32;;;;;;;8.27;4.55;;;;;;;;;;4242135;33;20049;-72
2023/04/11 08:35:58;;;;;;;5.60;4.30;;;;;;;;;;4233659;33;20060;-71
2023/04/11 08:38:24;;;;;;;6.03;3.90;;;;;;;;;;4239033;33;20808;-71
2023/04/11 08:40:50;;;;;;;12.63;4.55;;;;;;;;;;4240773;33;20034;-71
2023/04/11 08:43:17;;;;;;;6.25;4.87;;;;;;;;;;4221666;33;20068;-71
2023/04/11 08:45:43;;;;;;;5.43;4.35;;;;;;;;;;4208817;33;20039;-71
2023/04/11 08:48:11;;;;;;;5.62;4.25;;;;;;;;;;4193082;34;20035;-70
2023/04/11 08:50:38;;;;;;;9.88;4.22;;;;;;;;;;4204794;34;20031;-70
2023/04/11 08:53:07;;;;;;;6.15;3.65;;;;;;;;;;4207976;34;20314;-72
2023/04/11 08:55:33;;;;;;;4.00;3.60;;;;;;;;;;4234347;33;20064;-71
2023/04/11 08:58:00;;;;;;;2.92;2.45;;;;;;;;;;4223620;33;20051;-71
2023/04/11 09:00:27;;;;;;;3.30;3.00;;;;;;;;;;4221525;33;20401;-74
2023/04/11 09:03:04;;;;;;;4.15;2.20;;;;;;;;;;4222798;33;20074;-71
2023/04/11 09:05:34;;;;;;;9.98;2.95;;;;;;;;;;4235379;33;20133;-71
2023/04/11 09:08:11;;;;;;;3.87;2.78;;;;;;;;;;4237054;33;20457;-70
2023/04/11 09:10:38;;;;;;;4.87;2.17;;;;;;;;;;4239421;33;20030;-71
2023/04/11 09:13:24;;;;;;;1.98;1.85;;;;;;;;;;4234912;33;20060;-73
2023/04/11 09:16:07;;;;;;;3.20;2.15;;;;;;;;;;4230105;33;20054;-72
2023/04/11 09:18:35;;;;;;;2.95;2.03;;;;;;;;;;4252032;33;20038;-71
2023/04/11 09:21:06;;;;;;;2.87;1.98;;;;;;;;;;4253458;33;20046;-75
2023/04/11 09:23:32;;;;;;;3.80;2.50;;;;;;;;;;4250566;33;20101;-75
2023/04/11 09:25:58;;;;;;;2.45;1.95;;;;;;;;;;4245796;33;20059;-72
2023/04/11 09:28:25;;;;;;;2.28;2.08;;;;;;;;;;4252730;33;20097;-75
2023/04/11 09:30:51;;;;;;;2.37;2.15;;;;;;;;;;4259363;33;20439;-76
2023/04/11 09:33:20;;;;;;;2.75;2.53;;;;;;;;;;4258304;33;20512;-74
2023/04/11 09:35:47;;;;;;;4.35;2.22;;;;;;;;;;4260609;33;20045;-76
2023/04/11 09:38:25;;;;;;;2.42;1.95;;;;;;;;;;4266711;33;20050;-75
2023/04/11 09:40:51;;;;;;;3.87;2.40;;;;;;;;;;4250783;33;20292;-73
2023/04/11 09:43:18;;;;;;;3.10;2.00;;;;;;;;;;4257885;33;20064;-71
2023/04/11 09:45:45;;;;;;;2.20;1.90;;;;;;;;;;4258043;33;20101;-74
2023/04/11 09:48:12;;;;;;;2.95;2.37;;;;;;;;;;4260355;33;20124;-71
2023/04/11 09:50:44;;;;;;;2.67;2.47;;;;;;;;;;4259720;33;20439;-70
2023/04/11 09:53:10;;;;;;;2.67;2.10;;;;;;;;;;4257316;33;20042;-71
2023/04/11 09:55:36;;;;;;;1.75;1.65;;;;;;;;;;4256986;33;20065;-72
2023/04/11 09:58:04;;;;;;;2.55;2.10;;;;;;;;;;4261237;33;20922;-71
2023/04/11 10:00:31;;;;;;;12.18;1.90;;;;;;;;;;4260685;33;20038;-69
2023/04/11 10:02:57;;;;;;;2.55;1.90;;;;;;;;;;4258984;33;20431;-70
2023/04/11 10:05:25;;;;;;;1.80;1.60;;;;;;;;;;4258926;33;20046;-70
2023/04/11 10:07:54;;;;;;;2.03;1.92;;;;;;;;;;4225886;33;20039;-70
2023/04/11 10:10:22;;;;;;;2.65;1.95;;;;;;;;;;4220920;33;20043;-70
2023/04/11 10:12:49;;;;;;;2.80;2.08;;;;;;;;;;4249047;33;20386;-70
2023/04/11 10:15:15;;;;;;;5.05;1.87;;;;;;;;;;4248371;33;20064;-70
2023/04/11 10:17:42;;;;;;;1.40;1.30;;;;;;;;;;4244323;33;20038;-71
2023/04/11 10:20:33;;;;;;;2.22;2.03;;;;;;;;;;4242973;33;20046;-70
2023/04/11 10:23:00;;;;;;;2.05;1.85;;;;;;;;;;4238463;33;20065;-69
2023/04/11 10:25:26;;;;;;;2.45;2.22;;;;;;;;;;4221682;33;20211;-72
2023/04/11 10:27:59;;;;;;;4.55;2.58;;;;;;;;;;4224655;33;20117;-69
2023/04/11 10:30:37;;;;;;;2.00;1.90;;;;;;;;;;4226237;33;20093;-69
2023/04/11 10:33:14;;;;;;;9.98;1.85;;;;;;;;;;4223547;33;20145;-70
2023/04/11 10:35:57;;;;;;;2.72;2.08;;;;;;;;;;4226231;33;20076;-71
2023/04/11 10:38:47;;;;;;;3.47;1.95;;;;;;;;;;4233602;33;20062;-70
2023/04/11 10:41:13;;;;;;;1.85;1.75;;;;;;;;;;4264441;33;20042;-70
2023/04/11 10:43:40;;;;;;;5.22;2.20;;;;;;;;;;4265090;33;20053;-71
2023/04/11 10:46:15;;;;;;;4.03;1.80;;;;;;;;;;4272961;33;20068;-70
2023/04/11 10:49:02;;;;;;;3.40;1.45;;;;;;;;;;4274255;33;20089;-73
2023/04/11 10:51:29;;;;;;;2.92;2.62;;;;;;;;;;4274654;33;20309;-70
2023/04/11 10:53:58;;;;;;;2.53;2.20;;;;;;;;;;4278490;33;20045;-71
2023/04/11 10:56:39;;;;;;;2.33;2.12;;;;;;;;;;4274348;33;20100;-73
2023/04/11 10:59:05;;;;;;;6.30;1.87;;;;;;;;;;4272407;33;20046;-70
2023/04/11 11:01:31;;;;;;;4.45;2.17;;;;;;;;;;4487957;28;20703;-71
2023/04/11 11:03:58;;;;;;;3.80;1.75;;;;;;;;;;4265454;33;20114;-71
2023/04/11 11:06:25;;;;;;;2.53;2.33;;;;;;;;;;4266009;33;20322;-71
2023/04/11 11:08:51;;;;;;;5.40;2.97;;;;;;;;;;4250139;33;20053;-72
2023/04/11 11:11:18;;;;;;;4.25;1.80;;;;;;;;;;4245547;33;20060;-71
2023/04/11 11:13:51;;;;;;;2.92;1.73;;;;;;;;;;4221110;33;20074;-71
2023/04/11 11:16:21;;;;;;;5.03;2.33;;;;;;;;;;4221127;34;20065;-71
2023/04/11 11:18:51;;;;;;;2.72;1.70;;;;;;;;;;4220976;33;20100;-71
2023/04/11 11:21:23;;;;;;;2.37;2.00;;;;;;;;;;4206333;34;20069;-71
2023/04/11 11:23:59;;;;;;;2.05;1.92;;;;;;;;;;4208673;34;20125;-71
2023/04/11 11:26:38;;;;;;;2.28;2.10;;;;;;;;;;4207786;34;20102;-71
2023/04/11 11:29:05;;;;;;;4.43;2.12;;;;;;;;;;4207465;34;20062;-71
2023/04/11 11:31:35;;;;;;;2.10;1.75;;;;;;;;;;4215319;34;20091;-71
2023/04/11 11:34:02;;;;;;;6.18;1.87;;;;;;;;;;4219016;34;20117;-71
2023/04/11 11:36:28;;;;;;;2.65;2.45;;;;;;;;;;4216368;34;20090;-71
2023/04/11 11:38:54;;;;;;;1.95;1.83;;;;;;;;;;4216540;34;20188;-71
2023/04/11 11:41:20;;;;;;;2.28;2.15;;;;;;;;;;4213903;34;20538;-71
2023/04/11 11:43:47;;;;;;;2.00;1.80;;;;;;;;;;4211984;33;20055;-71
2023/04/11 11:46:13;;;;;;;4.53;2.22;;;;;;;;;;4238602;33;20406;-71
2023/04/11 11:48:56;;;;;;;2.05;1.92;;;;;;;;;;4258273;33;20534;-71
2023/04/11 11:51:22;;;;;;;2.08;1.98;;;;;;;;;;4263340;33;20050;-71
2023/04/11 11:54:04;;;;;;;2.25;1.90;;;;;;;;;;4262072;33;20098;-71
2023/04/11 11:56:30;;;;;;;2.25;1.90;;;;;;;;;;4249382;33;20050;-71
2023/04/11 11:58:57;;;;;;;2.92;2.12;;;;;;;;;;4253569;33;20097;-70
2023/04/11 12:01:23;;;;;;;5.35;1.92;;;;;;;;;;4251945;33;20042;-71
2023/04/11 12:03:52;;;;;;;2.30;2.20;;;;;;;;;;4259374;33;20753;-72
2023/04/11 12:06:19;;;;;;;1.85;1.75;;;;;;;;;;4234522;33;20366;-71
2023/04/11 12:08:52;;;;;;;2.53;2.33;;;;;;;;;;4236594;33;20072;-70
2023/04/11 12:11:18;;;;;;;1.50;1.40;;;;;;;;;;4227377;33;20071;-71
2023/04/11 12:13:50;;;;;;;2.05;1.95;;;;;;;;;;4248536;33;20084;-72
2023/04/11 12:16:20;;;;;;;2.90;2.13;;;;;;;;;;4249740;33;20033;-72
2023/04/11 12:18:47;;;;;;;2.17;2.08;;;;;;;;;;4247443;33;20054;-74
2023/04/11 12:21:13;;;;;;;4.32;2.20;;;;;;;;;;4246709;33;20116;-72
2023/04/11 12:23:39;;;;;;;11.43;2.15;;;;;;;;;;4249021;33;20079;-72
2023/04/11 12:26:05;;;;;;;3.12;2.20;;;;;;;;;;4248716;33;20068;-71
2023/04/11 12:28:32;;;;;;;6.53;2.42;;;;;;;;;;4251462;33;20480;-73
2023/04/11 12:30:58;;;;;;;2.47;2.35;;;;;;;;;;4246173;33;20148;-78
2023/04/11 12:33:24;;;;;;;3.30;3.00;;;;;;;;;;4246911;33;20571;-72
2023/04/11 12:35:50;;;;;;;8.23;2.05;;;;;;;;;;4249459;33;20031;-73
2023/04/11 12:38:16;;;;;;;3.75;2.10;;;;;;;;;;4249878;33;20053;-71
2023/04/11 12:40:43;;;;;;;3.12;2.70;;;;;;;;;;4251953;33;20393;-78
2023/04/11 12:43:09;;;;;;;2.15;2.00;;;;;;;;;;4252245;33;20038;-74
2023/04/11 12:45:36;;;;;;;2.20;2.00;;;;;;;;;;4253324;33;20509;-74
2023/04/11 12:48:02;;;;;;;4.18;2.97;;;;;;;;;;4253946;33;20053;-72
2023/04/11 12:50:29;;;;;;;6.47;2.35;;;;;;;;;;4251017;33;20093;-73
2023/04/11 12:52:55;;;;;;;6.65;2.47;;;;;;;;;;4249849;33;20105;-78
2023/04/11 12:55:22;;;;;;;4.43;2.03;;;;;;;;;;4252812;33;20071;-73
2023/04/11 12:57:48;;;;;;;1.73;1.62;;;;;;;;;;4253157;33;20407;-74
2023/04/11 13:00:15;;;;;;;3.72;1.67;;;;;;;;;;4255281;33;20068;-73
2023/04/11 13:02:42;;;;;;;2.70;2.30;;;;;;;;;;4251642;33;20084;-74
2023/04/11 13:05:15;;;;;;;2.03;1.85;;;;;;;;;;4251329;33;20056;-73
2023/04/11 13:07:43;;;;;;;2.40;2.20;;;;;;;;;;4252663;33;20322;-74
2023/04/11 13:10:09;;;;;;;5.50;1.80;;;;;;;;;;4252736;33;20466;-74
2023/04/11 13:12:46;;;;;;;5.28;2.40;;;;;;;;;;4252368;33;20038;-73
2023/04/11 13:15:14;;;;;;;2.12;2.03;;;;;;;;;;4250950;33;20075;-73
2023/04/11 13:17:40;;;;;;;2.12;2.00;;;;;;;;;;4252267;33;20316;-74
2023/04/11 13:20:08;;;;;;;10.15;2.75;;;;;;;;;;4252850;33;20406;-73
2023/04/11 13:22:36;;;;;;;4.62;2.40;;;;;;;;;;4257643;33;20072;-75
2023/04/11 13:25:02;;;;;;;2.80;2.60;;;;;;;;;;4265215;33;20147;-78
2023/04/11 13:27:28;;;;;;;2.53;2.33;;;;;;;;;;4266596;33;20088;-73
2023/04/11 13:29:54;;;;;;;12.90;2.67;;;;;;;;;;4268499;33;20046;-73
2023/04/11 13:32:20;;;;;;;2.80;2.50;;;;;;;;;;4269309;33;20058;-74
2023/04/11 13:34:46;;;;;;;2.85;2.65;;;;;;;;;;4269722;33;20063;-73
2023/04/11 13:37:20;;;;;;;11.68;2.50;;;;;;;;;;4268165;33;20328;-72
2023/04/11 13:39:47;;;;;;;3.75;3.05;;;;;;;;;;4269518;33;20348;-73
2023/04/11 13:42:13;;;;;;;2.50;2.30;;;;;;;;;;4269585;33;20087;-72
2023/04/11 13:44:39;;;;;;;2.75;2.42;;;;;;;;;;4269705;33;20481;-73
2023/04/11 13:47:05;;;;;;;3.37;2.42;;;;;;;;;;4267179;33;20049;-75
2023/04/11 13:49:32;;;;;;;3.75;2.58;;;;;;;;;;4269526;33;20387;-74
2023/04/11 13:51:58;;;;;;;8.68;2.62;;;;;;;;;;4267210;33;20056;-73
2023/04/11 13:54:24;;;;;;;5.05;2.92;;;;;;;;;;4267059;33;20049;-73
2023/04/11 13:56:51;;;;;;;6.55;2.95;;;;;;;;;;4280180;33;20046;-74
2023/04/11 13:59:17;;;;;;;4.37;3.05;;;;;;;;;;4279804;33;20200;-74
2023/04/11 14:01:43;;;;;;;5.78;3.30;;;;;;;;;;4280405;33;20337;-74
2023/04/11 14:04:10;;;;;;;3.95;2.37;;;;;;;;;;4280817;33;20045;-73
2023/04/11 14:06:37;;;;;;;3.15;2.80;;;;;;;;;;4280988;33;20055;-73
2023/04/11 14:09:04;;;;;;;5.00;2.78;;;;;;;;;;4278987;33;20057;-73
2023/04/11 14:11:31;;;;;;;5.78;2.65;;;;;;;;;;4278161;33;20072;-73
2023/04/11 14:13:57;;;;;;;7.12;3.00;;;;;;;;;;4251218;33;20260;-74
2023/04/11 14:16:23;;;;;;;7.00;3.30;;;;;;;;;;4252564;33;20136;-73
2023/04/11 14:18:49;;;;;;;5.07;3.05;;;;;;;;;;4251804;33;20054;-73
2023/04/11 14:21:21;;;;;;;3.78;3.47;;;;;;;;;;4250228;33;20031;-75
2023/04/11 14:23:47;;;;;;;5.82;3.25;;;;;;;;;;4239902;33;20511;-73
2023/04/11 14:26:14;;;;;;;9.27;3.22;;;;;;;;;;4237722;33;20124;-74
2023/04/11 14:28:40;;;;;;;9.43;3.75;;;;;;;;;;4226124;33;20306;-73
2023/04/11 14:31:06;;;;;;;8.88;3.25;;;;;;;;;;4224169;34;20031;-73
2023/04/11 14:33:33;;;;;;;5.32;3.35;;;;;;;;;;4221677;34;20061;-73
2023/04/11 14:35:59;;;;;;;6.78;3.50;;;;;;;;;;4224369;34;20047;-77
2023/04/11 14:38:25;;;;;;;7.50;3.67;;;;;;;;;;4223780;34;20069;-71
2023/04/11 14:40:52;;;;;;;13.48;3.00;;;;;;;;;;4223677;33;20369;-74
2023/04/11 14:43:18;;;;;;;8.93;2.92;;;;;;;;;;4221852;34;20046;-76
2023/04/11 14:45:45;;;;;;;10.15;3.20;;;;;;;;;;4235481;33;20080;-71
2023/04/11 14:48:12;;;;;;;13.25;3.00;;;;;;;;;;4238198;33;20038;-73
2023/04/11 14:50:37;;;;;;;5.25;2.78;;;;;;;;;;4250902;33;20098;-73
2023/04/11 14:53:04;;;;;;;9.75;3.28;;;;;;;;;;4250136;33;20423;-73
2023/04/11 14:55:30;;;;;;;7.35;3.30;;;;;;;;;;4252216;33;20562;-74
2023/04/11 14:57:56;;;;;;;6.43;2.90;;;;;;;;;;4251551;33;20466;-73
2023/04/11 15:00:28;;;;;;;5.43;3.30;;;;;;;;;;4240689;33;20103;-73
2023/04/11 15:02:55;;;;;;;5.60;3.12;;;;;;;;;;4234862;33;20046;-76
2023/04/11 15:05:22;;;;;;;4.82;3.40;;;;;;;;;;4237512;33;20035;-73
2023/04/11 15:07:49;;;;;;;4.55;3.20;;;;;;;;;;4237450;33;20069;-73
2023/04/11 15:10:16;;;;;;;5.43;3.25;;;;;;;;;;4237564;33;20027;-71
2023/04/11 15:12:42;;;;;;;8.60;3.67;;;;;;;;;;4235985;33;20558;-72
2023/04/11 15:15:09;;;;;;;3.90;2.80;;;;;;;;;;4236419;33;20123;-77
2023/04/11 15:17:42;;;;;;;5.72;3.28;;;;;;;;;;4237106;33;20066;-71
2023/04/11 15:20:15;;;;;;;3.25;2.95;;;;;;;;;;4237617;33;20370;-72
2023/04/11 15:22:42;;;;;;;18.02;2.92;;;;;;;;;;4237473;33;20049;-73
2023/04/11 15:25:12;;;;;;;5.57;2.72;;;;;;;;;;4235547;33;20070;-72
2023/04/11 15:27:39;;;;;;;4.78;3.20;;;;;;;;;;4237006;33;20289;-74
2023/04/11 15:30:06;;;;;;;15.13;3.37;;;;;;;;;;4237731;33;20080;-72
2023/04/11 15:32:32;;;;;;;7.40;3.92;;;;;;;;;;4253255;33;20547;-72
2023/04/11 15:35:05;;;;;;;8.05;3.45;;;;;;;;;;4249128;33;20045;-74
2023/04/11 15:37:31;;;;;;;4.53;3.28;;;;;;;;;;4251815;33;20313;-71
2023/04/11 15:39:58;;;;;;;4.30;3.10;;;;;;;;;;4247373;33;20211;-71
2023/04/11 15:42:24;;;;;;;8.90;3.97;;;;;;;;;;4246854;33;20054;-73
2023/04/11 15:44:51;;;;;;;4.05;3.33;;;;;;;;;;4251152;33;20042;-71
2023/04/11 15:47:17;;;;;;;4.47;3.85;;;;;;;;;;4249035;33;20368;-71
2023/04/11 15:49:49;;;;;;;4.80;3.58;;;;;;;;;;4249128;33;20058;-72
2023/04/11 15:52:17;;;;;;;4.43;3.35;;;;;;;;;;4247988;33;20050;-71
2023/04/11 15:54:43;;;;;;;4.18;3.17;;;;;;;;;;4249143;33;20044;-71
2023/04/11 15:57:09;;;;;;;5.20;3.55;;;;;;;;;;4249330;33;20072;-75
2023/04/11 15:59:36;;;;;;;6.57;4.28;;;;;;;;;;4250332;33;20050;-72
2023/04/11 16:02:04;;;;;;;10.15;4.15;;;;;;;;;;4248661;33;20384;-72
2023/04/11 16:04:32;;;;;;;10.38;4.90;;;;;;;;;;4245953;33;20058;-73
2023/04/11 16:06:58;;;;;;;9.68;4.85;;;;;;;;;;4247179;33;20437;-73
2023/04/11 16:09:25;;;;;;;6.87;4.80;;;;;;;;;;4217898;34;20086;-71
2023/04/11 16:11:51;;;;;;;16.73;4.45;;;;;;;;;;4191408;34;20067;-72
2023/04/11 16:14:17;;;;;;;13.25;6.35;;;;;;;;;;4192925;34;20088;-72
2023/04/11 16:16:45;;;;;;;11.40;4.57;;;;;;;;;;4191806;34;20056;-72
2023/04/11 16:19:11;;;;;;;8.18;4.82;;;;;;;;;;4191466;34;20191;-77
2023/04/11 16:21:37;;;;;;;8.88;5.93;;;;;;;;;;4194163;34;20047;-72
2023/04/11 16:24:03;;;;;;;14.02;5.90;;;;;;;;;;4193781;34;20047;-71
2023/04/11 16:26:31;;;;;;;10.68;5.12;;;;;;;;;;4191097;34;20077;-70
2023/04/11 16:28:57;;;;;;;15.10;8.65;;;;;;;;;;4181069;34;20597;-71
2023/04/11 16:31:23;;;;;;;23.80;10.10;;;;;;;;;;4178072;34;20074;-72
2023/04/11 16:33:51;;;;;;;24.42;13.93;;;;;;;;;;4180165;34;20125;-72
2023/04/11 16:36:18;;;;;;;26.58;11.98;;;;;;;;;;4178341;34;20443;-72
2023/04/11 16:38:51;;;;;;;28.55;12.48;;;;;;;;;;4179276;34;20062;-70
2023/04/11 16:41:18;;;;;;;29.65;13.32;;;;;;;;;;4201331;34;20058;-72
2023/04/11 16:43:44;;;;;;;23.23;11.70;;;;;;;;;;4217689;33;20558;-72
2023/04/11 16:46:14;;;;;;;29.45;11.93;;;;;;;;;;4219605;33;20106;-72
2023/04/11 16:48:40;;;;;;;20.52;11.02;;;;;;;;;;4218473;33;20050;-73
2023/04/11 16:51:09;;;;;;;19.50;9.82;;;;;;;;;;4220252;33;20101;-71
2023/04/11 16:53:35;;;;;;;15.55;8.82;;;;;;;;;;4206297;33;20039;-73
2023/04/11 16:56:01;;;;;;;15.48;9.43;;;;;;;;;;4203996;34;20047;-71
2023/04/11 16:58:27;;;;;;;17.62;9.25;;;;;;;;;;4195639;34;20280;-72
2023/04/11 17:00:54;;;;;;;13.70;7.97;;;;;;;;;;4216783;33;20065;-71
2023/04/11 17:03:20;;;;;;;16.58;7.53;;;;;;;;;;4220353;33;20054;-70
2023/04/11 17:05:47;;;;;;;18.50;7.18;;;;;;;;;;4220233;34;20490;-75
2023/04/11 17:08:14;;;;;;;15.30;7.53;;;;;;;;;;4258399;33;20068;-71
2023/04/11 17:10:41;;;;;;;26.62;9.07;;;;;;;;;;4262093;33;20130;-70
2023/04/11 17:13:07;;;;;;;21.20;9.00;;;;;;;;;;4261757;33;20485;-70
2023/04/11 17:15:34;;;;;;;16.27;7.53;;;;;;;;;;4260150;33;20085;-72
2023/04/11 17:18:01;;;;;;;6.95;5.12;;;;;;;;;;4259737;33;20491;-72
2023/04/11 17:20:28;;;;;;;18.35;6.72;;;;;;;;;;4259913;33;20099;-71
2023/04/11 17:22:54;;;;;;;13.13;6.75;;;;;;;;;;4261139;33;20053;-72
2023/04/11 17:25:21;;;;;;;11.25;6.55;;;;;;;;;;4257575;33;20050;-71
2023/04/11 17:27:47;;;;;;;17.25;7.90;;;;;;;;;;4259587;33;20464;-72
2023/04/11 17:30:14;;;;;;;16.75;8.35;;;;;;;;;;4259070;33;20116;-72
2023/04/11 17:32:40;;;;;;;19.77;8.60;;;;;;;;;;4275888;33;20065;-72
2023/04/11 17:35:12;;;;;;;;;;;;;;;;;;4252943;33;20046;-71
2023/04/11 17:37:38;;;;;;;10.63;6.60;;;;;;;;;;4247322;33;20719;-71
2023/04/11 17:40:13;;;;;;;12.45;8.00;;;;;;;;;;4220661;33;20238;-70
2023/04/11 17:42:39;;;;;;;15.35;8.02;;;;;;;;;;4232286;33;20178;-71
2023/04/11 17:45:07;;;;;;;13.95;8.27;;;;;;;;;;4231442;33;20073;-71
2023/04/11 17:47:42;;;;;;;15.75;8.95;;;;;;;;;;4217988;33;20083;-73
2023/04/11 17:50:09;;;;;;;15.52;7.72;;;;;;;;;;4217898;33;20229;-70
2023/04/11 17:52:37;;;;;;;16.55;10.25;;;;;;;;;;4219621;33;20466;-71
2023/04/11 17:55:04;;;;;;;18.48;8.70;;;;;;;;;;4220267;33;20062;-71
2023/04/11 17:57:31;;;;;;;14.07;7.97;;;;;;;;;;4216068;33;20057;-70